| time (UTC) | temp F | wind direction | speed MPH | gust MPH | rain 1hr in | rain 24hr in | rain mn in | humidity % | barometer mb |
| 20260502220005 | 48 | 219 | 0.0 | 2.0 | 0.00 | 0.03 | 0.02 | 46 | 1016.7 |
| 20260502214504 | 48 | 219 | 0.0 | 4.0 | 0.00 | 0.03 | 0.02 | 44 | 1016.6 |
| 20260502213008 | 48 | 250 | 0.0 | 4.0 | 0.00 | 0.03 | 0.02 | 48 | 1016.7 |
| 20260502211503 | 48 | 328 | 0.0 | 4.0 | 0.00 | 0.03 | 0.02 | 47 | 1016.8 |
| 20260502210007 | 47 | 313 | 0.0 | 6.0 | 0.00 | 0.03 | 0.02 | 44 | 1016.8 |
| 20260502204504 | 48 | 238 | 0.0 | 2.0 | 0.00 | 0.03 | 0.02 | 44 | 1016.8 |
| 20260502203004 | 47 | 329 | 0.0 | 2.0 | 0.00 | 0.03 | 0.02 | 46 | 1017.0 |
| 20260502201503 | 48 | 301 | 0.0 | 2.0 | 0.00 | 0.03 | 0.02 | 42 | 1017.0 |
| 20260502200004 | 48 | 304 | 0.0 | 3.0 | 0.00 | 0.03 | 0.02 | 44 | 1017.2 |
| 20260502194503 | 47 | 235 | 0.0 | 8.0 | 0.00 | 0.03 | 0.02 | 44 | 1017.3 |
| 20260502193004 | 48 | 294 | 0.0 | 4.0 | 0.00 | 0.03 | 0.02 | 46 | 1017.5 |
| 20260502191504 | 49 | 327 | 0.0 | 4.0 | 0.00 | 0.03 | 0.02 | 43 | 1017.5 |
| 20260502190008 | 46 | 240 | 1.0 | 7.0 | 0.00 | 0.03 | 0.02 | 43 | 1017.7 |
| 20260502184504 | 46 | 235 | 0.0 | 4.0 | 0.00 | 0.03 | 0.02 | 44 | 1017.8 |
| 20260502183003 | 46 | 289 | 0.0 | 3.0 | 0.00 | 0.03 | 0.02 | 49 | 1018.0 |
| 20260502181503 | 46 | 333 | 0.0 | 3.0 | 0.00 | 0.03 | 0.02 | 47 | 1018.2 |
| 20260502163007 | 44 | 299 | 0.0 | 2.0 | 0.01 | 0.04 | 0.02 | 51 | 1018.7 |
| 20260502161504 | 45 | 32 | 0.0 | 4.0 | 0.01 | 0.04 | 0.02 | 52 | 1018.6 |
| 20260502151510 | 43 | 336 | 0.0 | 3.0 | 0.00 | 0.03 | 0.01 | 51 | 1018.7 |
| 20260502123002 | 39 | 65 | 0.0 | 3.0 | 0.00 | 0.04 | 0.01 | 76 | 1018.5 |
| 20260502121506 | 38 | 336 | 0.0 | 0.0 | 0.00 | 0.04 | 0.01 | 83 | 1018.6 |
| 20260502114503 | 34 | 74 | 0.0 | 0.0 | 0.00 | 0.05 | 0.01 | 94 | 1018.4 |
| 20260502113002 | 33 | 74 | 0.0 | 0.0 | 0.00 | 0.05 | 0.01 | 93 | 1018.3 |
| 20260502111503 | 33 | 74 | 0.0 | 0.0 | 0.00 | 0.05 | 0.01 | 93 | 1018.2 |
| 20260502110004 | 33 | 74 | 0.0 | 0.0 | 0.00 | 0.05 | 0.01 | 93 | 1018.1 |
| 20260502104502 | 34 | 74 | 0.0 | 0.0 | 0.00 | 0.05 | 0.01 | 93 | 1017.9 |
| 20260502103004 | 34 | 74 | 0.0 | 0.0 | 0.00 | 0.05 | 0.01 | 92 | 1017.8 |
| 20260502101600 | 35 | 74 | 0.0 | 0.0 | 0.00 | 0.05 | 0.01 | 92 | 1017.8 |
| 20260502091504 | 35 | 74 | 0.0 | 0.0 | 0.00 | 0.05 | 0.01 | 92 | 1017.7 |
| 20260502071504 | 36 | 74 | 0.0 | 0.0 | 0.00 | 0.06 | 0.01 | 88 | 1017.3 |
| 20260502070004 | 36 | 115 | 0.0 | 0.0 | 0.00 | 0.06 | 0.01 | 88 | 1017.3 |
| 20260502064510 | 36 | 83 | 0.0 | 0.0 | 0.00 | 0.07 | 0.01 | 87 | 1017.4 |
| 20260502063004 | 36 | 93 | 0.0 | 2.0 | 0.00 | 0.07 | 0.01 | 86 | 1017.5 |
| 20260502061600 | 36 | 89 | 0.0 | 2.0 | 0.00 | 0.07 | 0.01 | 85 | 1017.5 |
| 20260502060006 | 38 | 57 | 0.0 | 3.0 | 0.00 | 0.07 | 0.01 | 82 | 1017.7 |
| 20260502054503 | 40 | 53 | 0.0 | 4.0 | 0.01 | 0.07 | 0.01 | 79 | 1017.6 |
| 20260502053005 | 41 | 76 | 0.0 | 4.0 | 0.01 | 0.07 | 0.01 | 80 | 1017.4 |
| 20260502051504 | 41 | 35 | 0.0 | 0.0 | 0.01 | 0.07 | 0.01 | 77 | 1017.3 |
| 20260502050007 | 41 | 35 | 0.0 | 0.0 | 0.01 | 0.07 | 0.01 | 76 | 1017.2 |
| 20260502044507 | 41 | 35 | 0.0 | 0.0 | 0.00 | 0.07 | 0.00 | 76 | 1017.1 |
| 20260502043003 | 42 | 35 | 0.0 | 0.0 | 0.00 | 0.07 | 0.00 | 76 | 1017.0 |
| 20260502041504 | 42 | 35 | 0.0 | 0.0 | 0.00 | 0.07 | 0.00 | 76 | 1016.9 |
| 20260502040007 | 42 | 35 | 0.0 | 0.0 | 0.00 | 0.07 | 0.00 | 71 | 1016.8 |
| 20260502034503 | 42 | 35 | 0.0 | 0.0 | 0.00 | 0.07 | 0.07 | 70 | 1016.7 |
| 20260502033002 | 42 | 39 | 0.0 | 0.0 | 0.00 | 0.07 | 0.07 | 71 | 1016.7 |
| 20260502031503 | 42 | 83 | 0.0 | 0.0 | 0.00 | 0.07 | 0.07 | 73 | 1016.7 |
| 20260502030005 | 42 | 83 | 0.0 | 0.0 | 0.00 | 0.07 | 0.07 | 73 | 1016.8 |
| 20260502024502 | 43 | 83 | 0.0 | 0.0 | 0.00 | 0.07 | 0.07 | 72 | 1016.8 |
| 20260502023004 | 42 | 83 | 0.0 | 0.0 | 0.00 | 0.07 | 0.07 | 74 | 1016.8 |
| 20260502021502 | 42 | 83 | 0.0 | 0.0 | 0.00 | 0.07 | 0.07 | 72 | 1016.5 |
| 20260502020005 | 43 | 355 | 0.0 | 0.0 | 0.00 | 0.07 | 0.07 | 68 | 1016.3 |
| 20260502014509 | 43 | 355 | 0.0 | 0.0 | 0.00 | 0.07 | 0.07 | 66 | 1016.2 |
| 20260502013003 | 44 | 5 | 0.0 | 1.0 | 0.00 | 0.07 | 0.07 | 64 | 1016.0 |
| 20260502011503 | 44 | 344 | 0.0 | 2.0 | 0.00 | 0.07 | 0.07 | 65 | 1015.9 |
| 20260502010004 | 44 | 345 | 0.0 | 3.0 | 0.00 | 0.07 | 0.07 | 65 | 1015.8 |
| 20260502004503 | 45 | 290 | 0.0 | 0.0 | 0.00 | 0.07 | 0.07 | 66 | 1015.7 |
| 20260502003002 | 45 | 304 | 0.0 | 2.0 | 0.00 | 0.07 | 0.07 | 64 | 1015.7 |
| 20260502001503 | 45 | 277 | 0.0 | 0.0 | 0.00 | 0.07 | 0.07 | 65 | 1015.5 |
| 20260502000002 | 45 | 355 | 0.0 | 0.0 | 0.00 | 0.07 | 0.07 | 64 | 1015.5 |
| 20260501234504 | 46 | 15 | 0.0 | 4.0 | 0.00 | 0.07 | 0.07 | 61 | 1015.4 |
| 20260501233003 | 46 | 306 | 0.0 | 2.0 | 0.00 | 0.07 | 0.07 | 62 | 1015.2 |
| 20260501231503 | 46 | 360 | 0.0 | 2.0 | 0.00 | 0.07 | 0.07 | 60 | 1015.1 |
| 20260501230005 | 47 | 317 | 0.0 | 2.0 | 0.01 | 0.07 | 0.07 | 59 | 1015.0 |
| 20260501224501 | 48 | 360 | 0.0 | 3.0 | 0.01 | 0.08 | 0.07 | 58 | 1014.9 |
| 20260501223005 | 48 | 318 | 0.0 | 3.0 | 0.01 | 0.08 | 0.07 | 59 | 1015.0 |
| 20260501221503 | 48 | 321 | 0.0 | 3.0 | 0.01 | 0.08 | 0.07 | 55 | 1014.8 |